sensor_id;sensor_type;location;lat;lon;timestamp;pressure;altitude;pressure_sealevel;temperature;humidity
16030;BME280;34770;49.272;11.070;2022-11-20T00:01:15;97245.91;;;0.22;100.00
16030;BME280;34770;49.272;11.070;2022-11-20T00:03:42;97245.84;;;0.27;100.00
16030;BME280;34770;49.272;11.070;2022-11-20T00:06:10;97253.22;;;0.26;100.00
16030;BME280;34770;49.272;11.070;2022-11-20T00:08:36;97254.97;;;0.36;100.00
16030;BME280;34770;49.272;11.070;2022-11-20T00:11:08;97249.19;;;0.38;100.00
16030;BME280;34770;49.272;11.070;2022-11-20T00:13:34;97243.91;;;0.27;100.00
16030;BME280;34770;49.272;11.070;2022-11-20T00:16:01;97254.72;;;0.19;100.00
16030;BME280;34770;49.272;11.070;2022-11-20T00:18:28;97249.47;;;0.22;100.00
16030;BME280;34770;49.272;11.070;2022-11-20T00:20:53;97259.00;;;0.25;100.00
16030;BME280;34770;49.272;11.070;2022-11-20T00:23:19;97220.72;;;0.06;100.00
16030;BME280;34770;49.272;11.070;2022-11-20T00:25:45;97235.25;;;0.20;100.00
16030;BME280;34770;49.272;11.070;2022-11-20T00:28:11;97243.09;;;0.27;100.00
16030;BME280;34770;49.272;11.070;2022-11-20T00:30:36;97249.06;;;0.29;100.00
16030;BME280;34770;49.272;11.070;2022-11-20T00:33:02;97255.66;;;0.28;100.00
16030;BME280;34770;49.272;11.070;2022-11-20T00:35:28;97246.31;;;0.29;100.00
16030;BME280;34770;49.272;11.070;2022-11-20T00:37:56;97252.31;;;0.31;100.00
16030;BME280;34770;49.272;11.070;2022-11-20T00:40:22;97251.41;;;0.36;100.00
16030;BME280;34770;49.272;11.070;2022-11-20T00:42:47;97253.63;;;0.34;100.00
16030;BME280;34770;49.272;11.070;2022-11-20T00:45:13;97257.84;;;0.45;100.00
16030;BME280;34770;49.272;11.070;2022-11-20T00:47:38;97250.31;;;0.51;100.00
16030;BME280;34770;49.272;11.070;2022-11-20T00:50:04;97249.47;;;0.36;100.00
16030;BME280;34770;49.272;11.070;2022-11-20T00:52:30;97251.31;;;0.41;100.00
16030;BME280;34770;49.272;11.070;2022-11-20T00:54:55;97242.19;;;0.45;100.00
16030;BME280;34770;49.272;11.070;2022-11-20T00:57:21;97248.38;;;0.37;100.00
16030;BME280;34770;49.272;11.070;2022-11-20T00:59:46;97248.38;;;0.37;100.00
16030;BME280;34770;49.272;11.070;2022-11-20T01:02:11;97238.47;;;0.41;100.00
16030;BME280;34770;49.272;11.070;2022-11-20T01:04:37;97245.75;;;0.46;100.00
16030;BME280;34770;49.272;11.070;2022-11-20T01:07:03;97236.91;;;0.35;100.00
16030;BME280;34770;49.272;11.070;2022-11-20T01:09:28;97246.56;;;0.46;100.00
16030;BME280;34770;49.272;11.070;2022-11-20T01:11:55;97250.63;;;0.49;100.00
16030;BME280;34770;49.272;11.070;2022-11-20T01:14:21;97236.53;;;0.42;100.00
16030;BME280;34770;49.272;11.070;2022-11-20T01:16:49;97244.63;;;0.47;100.00
16030;BME280;34770;49.272;11.070;2022-11-20T01:19:18;97257.09;;;0.39;100.00
16030;BME280;34770;49.272;11.070;2022-11-20T01:21:46;97252.94;;;0.42;100.00
16030;BME280;34770;49.272;11.070;2022-11-20T01:24:15;97255.69;;;0.42;100.00
16030;BME280;34770;49.272;11.070;2022-11-20T01:26:42;97259.75;;;0.44;100.00
16030;BME280;34770;49.272;11.070;2022-11-20T01:29:16;97255.66;;;0.28;100.00
16030;BME280;34770;49.272;11.070;2022-11-20T01:31:42;97248.16;;;0.34;100.00
16030;BME280;34770;49.272;11.070;2022-11-20T01:34:18;97252.41;;;0.26;100.00
16030;BME280;34770;49.272;11.070;2022-11-20T01:36:45;97256.44;;;0.14;100.00
16030;BME280;34770;49.272;11.070;2022-11-20T01:39:14;97252.41;;;0.26;100.00
16030;BME280;34770;49.272;11.070;2022-11-20T01:41:40;97238.41;;;0.27;100.00
16030;BME280;34770;49.272;11.070;2022-11-20T01:44:50;97236.31;;;0.24;100.00
16030;BME280;34770;49.272;11.070;2022-11-20T01:47:26;97235.09;;;0.30;100.00
16030;BME280;34770;49.272;11.070;2022-11-20T01:50:01;97229.22;;;0.37;100.00
16030;BME280;34770;49.272;11.070;2022-11-20T01:52:34;97238.53;;;0.36;100.00
16030;BME280;34770;49.272;11.070;2022-11-20T01:57:33;97241.25;;;0.22;100.00
16030;BME280;34770;49.272;11.070;2022-11-20T02:00:04;97228.09;;;0.24;100.00
16030;BME280;34770;49.272;11.070;2022-11-20T02:02:31;97225.94;;;0.21;100.00
16030;BME280;34770;49.272;11.070;2022-11-20T02:05:02;97234.63;;;0.09;100.00
16030;BME280;34770;49.272;11.070;2022-11-20T02:07:34;97224.00;;;0.08;100.00
16030;BME280;34770;49.272;11.070;2022-11-20T02:10:00;97232.94;;;0.27;100.00
16030;BME280;34770;49.272;11.070;2022-11-20T02:12:26;97228.28;;;0.28;100.00
16030;BME280;34770;49.272;11.070;2022-11-20T02:15:11;97207.59;;;0.22;100.00
16030;BME280;34770;49.272;11.070;2022-11-20T02:17:37;97220.16;;;0.23;100.00
16030;BME280;34770;49.272;11.070;2022-11-20T02:20:03;97217.53;;;0.18;100.00
16030;BME280;34770;49.272;11.070;2022-11-20T02:22:35;97214.19;;;0.21;100.00
16030;BME280;34770;49.272;11.070;2022-11-20T02:25:05;97218.25;;;0.23;100.00
16030;BME280;34770;49.272;11.070;2022-11-20T02:27:32;97223.09;;;0.12;100.00
16030;BME280;34770;49.272;11.070;2022-11-20T02:30:01;97220.78;;;0.20;100.00
16030;BME280;34770;49.272;11.070;2022-11-20T02:32:28;97225.25;;;0.29;100.00
16030;BME280;34770;49.272;11.070;2022-11-20T02:34:54;97215.63;;;0.32;100.00
16030;BME280;34770;49.272;11.070;2022-11-20T02:37:20;97219.47;;;0.31;100.00
16030;BME280;34770;49.272;11.070;2022-11-20T02:39:49;97217.94;;;0.39;100.00
16030;BME280;34770;49.272;11.070;2022-11-20T02:42:15;97213.88;;;0.36;100.00
16030;BME280;34770;49.272;11.070;2022-11-20T02:44:41;97218.34;;;0.46;100.00
16030;BME280;34770;49.272;11.070;2022-11-20T02:47:06;97216.97;;;0.49;100.00
16030;BME280;34770;49.272;11.070;2022-11-20T02:49:32;97218.56;;;0.50;100.00
16030;BME280;34770;49.272;11.070;2022-11-20T02:51:58;97210.16;;;0.46;100.00
16030;BME280;34770;49.272;11.070;2022-11-20T02:54:24;97214.31;;;0.43;100.00
16030;BME280;34770;49.272;11.070;2022-11-20T02:56:50;97210.25;;;0.41;100.00
16030;BME280;34770;49.272;11.070;2022-11-20T02:59:16;97207.59;;;0.50;100.00
16030;BME280;34770;49.272;11.070;2022-11-20T03:01:41;97195.44;;;0.42;100.00
16030;BME280;34770;49.272;11.070;2022-11-20T03:04:07;97205.06;;;0.53;100.00
16030;BME280;34770;49.272;11.070;2022-11-20T03:06:33;97207.75;;;0.58;100.00
16030;BME280;34770;49.272;11.070;2022-11-20T03:08:58;97208.03;;;0.57;100.00
16030;BME280;34770;49.272;11.070;2022-11-20T03:11:25;97203.16;;;0.54;100.00
16030;BME280;34770;49.272;11.070;2022-11-20T03:14:09;97185.50;;;0.46;100.00
16030;BME280;34770;49.272;11.070;2022-11-20T03:16:34;97192.59;;;0.47;100.00
16030;BME280;34770;49.272;11.070;2022-11-20T03:19:00;97193.63;;;0.37;100.00
16030;BME280;34770;49.272;11.070;2022-11-20T03:21:26;97190.38;;;0.49;100.00
16030;BME280;34770;49.272;11.070;2022-11-20T03:23:53;97190.69;;;0.61;100.00
16030;BME280;34770;49.272;11.070;2022-11-20T03:26:22;97197.28;;;0.46;100.00
16030;BME280;34770;49.272;11.070;2022-11-20T03:28:52;97196.47;;;0.60;100.00
16030;BME280;34770;49.272;11.070;2022-11-20T03:31:21;97182.47;;;0.47;100.00
16030;BME280;34770;49.272;11.070;2022-11-20T03:33:47;97187.53;;;0.54;100.00
16030;BME280;34770;49.272;11.070;2022-11-20T03:36:13;97183.88;;;0.59;100.00
16030;BME280;34770;49.272;11.070;2022-11-20T03:38:40;97183.88;;;0.59;100.00
16030;BME280;34770;49.272;11.070;2022-11-20T03:41:09;97184.19;;;0.57;100.00
16030;BME280;34770;49.272;11.070;2022-11-20T03:43:35;97183.47;;;0.52;100.00
16030;BME280;34770;49.272;11.070;2022-11-20T03:46:01;97166.53;;;0.50;100.00
16030;BME280;34770;49.272;11.070;2022-11-20T03:48:27;97183.78;;;0.64;100.00
16030;BME280;34770;49.272;11.070;2022-11-20T03:51:10;97180.63;;;0.71;100.00
16030;BME280;34770;49.272;11.070;2022-11-20T03:53:35;97193.50;;;0.70;100.00
16030;BME280;34770;49.272;11.070;2022-11-20T03:56:01;97193.63;;;0.65;100.00
16030;BME280;34770;49.272;11.070;2022-11-20T03:58:26;97188.66;;;0.67;100.00
16030;BME280;34770;49.272;11.070;2022-11-20T04:00:52;97185.50;;;0.60;100.00
16030;BME280;34770;49.272;11.070;2022-11-20T04:03:17;97181.84;;;0.51;100.00
16030;BME280;34770;49.272;11.070;2022-11-20T04:05:43;97181.94;;;0.59;100.00
16030;BME280;34770;49.272;11.070;2022-11-20T04:08:09;97192.81;;;0.65;100.00
16030;BME280;34770;49.272;11.070;2022-11-20T04:10:34;97182.47;;;0.61;100.00
16030;BME280;34770;49.272;11.070;2022-11-20T04:13:00;97177.81;;;0.62;100.00
16030;BME280;34770;49.272;11.070;2022-11-20T04:15:25;97187.34;;;0.65;100.00
16030;BME280;34770;49.272;11.070;2022-11-20T04:17:51;97180.22;;;0.77;100.00
16030;BME280;34770;49.272;11.070;2022-11-20T04:20:16;97183.16;;;0.81;100.00
16030;BME280;34770;49.272;11.070;2022-11-20T04:22:42;97187.84;;;0.81;100.00
16030;BME280;34770;49.272;11.070;2022-11-20T04:25:08;97187.94;;;0.75;100.00
16030;BME280;34770;49.272;11.070;2022-11-20T04:27:33;97187.13;;;0.75;100.00
16030;BME280;34770;49.272;11.070;2022-11-20T04:29:59;97189.97;;;0.70;100.00
16030;BME280;34770;49.272;11.070;2022-11-20T04:32:24;97182.34;;;0.67;100.00
16030;BME280;34770;49.272;11.070;2022-11-20T04:34:50;97183.06;;;0.72;100.00
16030;BME280;34770;49.272;11.070;2022-11-20T04:37:15;97193.22;;;0.58;100.00
16030;BME280;34770;49.272;11.070;2022-11-20T04:39:41;97182.78;;;0.60;100.00
16030;BME280;34770;49.272;11.070;2022-11-20T04:42:08;97187.81;;;0.67;100.00
16030;BME280;34770;49.272;11.070;2022-11-20T04:44:53;97177.38;;;0.69;100.00
16030;BME280;34770;49.272;11.070;2022-11-20T04:47:18;97181.47;;;0.57;100.00
16030;BME280;34770;49.272;11.070;2022-11-20T04:49:44;97184.41;;;0.61;100.00
16030;BME280;34770;49.272;11.070;2022-11-20T04:52:09;97164.72;;;0.59;100.00
16030;BME280;34770;49.272;11.070;2022-11-20T04:54:35;97170.47;;;0.71;100.00
16030;BME280;34770;49.272;11.070;2022-11-20T04:57:00;97171.50;;;0.75;100.00
16030;BME280;34770;49.272;11.070;2022-11-20T04:59:26;97171.50;;;0.75;100.00
16030;BME280;34770;49.272;11.070;2022-11-20T05:01:51;97162.19;;;0.76;100.00
16030;BME280;34770;49.272;11.070;2022-11-20T05:04:17;97170.41;;;0.76;100.00
16030;BME280;34770;49.272;11.070;2022-11-20T05:06:42;97169.16;;;0.83;100.00
16030;BME280;34770;49.272;11.070;2022-11-20T05:09:08;97168.13;;;0.78;100.00
16030;BME280;34770;49.272;11.070;2022-11-20T05:11:33;97174.56;;;0.60;100.00
16030;BME280;34770;49.272;11.070;2022-11-20T05:13:59;97171.72;;;0.65;100.00
16030;BME280;34770;49.272;11.070;2022-11-20T05:16:25;97171.91;;;0.69;100.00
16030;BME280;34770;49.272;11.070;2022-11-20T05:18:52;97162.78;;;0.73;100.00
16030;BME280;34770;49.272;11.070;2022-11-20T05:21:19;97166.22;;;0.65;100.00
16030;BME280;34770;49.272;11.070;2022-11-20T05:23:45;97159.13;;;0.64;100.00
16030;BME280;34770;49.272;11.070;2022-11-20T05:26:16;97169.88;;;0.74;100.00
16030;BME280;34770;49.272;11.070;2022-11-20T05:28:41;97151.59;;;0.84;100.00
16030;BME280;34770;49.272;11.070;2022-11-20T05:31:09;97159.81;;;0.84;100.00
16030;BME280;34770;49.272;11.070;2022-11-20T05:33:35;97155.47;;;0.83;100.00
16030;BME280;34770;49.272;11.070;2022-11-20T05:36:02;97167.47;;;0.73;100.00
16030;BME280;34770;49.272;11.070;2022-11-20T05:38:28;97145.03;;;0.57;100.00
16030;BME280;34770;49.272;11.070;2022-11-20T05:40:54;97152.72;;;0.69;100.00
16030;BME280;34770;49.272;11.070;2022-11-20T05:43:19;97164.00;;;0.67;100.00
16030;BME280;34770;49.272;11.070;2022-11-20T05:45:55;97152.44;;;0.56;100.00
16030;BME280;34770;49.272;11.070;2022-11-20T05:48:20;97159.63;;;0.66;100.00
16030;BME280;34770;49.272;11.070;2022-11-20T05:50:47;97157.50;;;0.63;100.00
16030;BME280;34770;49.272;11.070;2022-11-20T05:53:13;97155.91;;;0.62;100.00
16030;BME280;34770;49.272;11.070;2022-11-20T05:55:38;97160.94;;;0.69;100.00
16030;BME280;34770;49.272;11.070;2022-11-20T05:58:04;97156.69;;;0.76;100.00
16030;BME280;34770;49.272;11.070;2022-11-20T06:00:29;97156.69;;;0.76;100.00
16030;BME280;34770;49.272;11.070;2022-11-20T06:02:55;97163.78;;;0.77;100.00
16030;BME280;34770;49.272;11.070;2022-11-20T06:05:21;97150.91;;;0.64;100.00
16030;BME280;34770;49.272;11.070;2022-11-20T06:07:46;97168.47;;;0.77;100.00
16030;BME280;34770;49.272;11.070;2022-11-20T06:10:11;97167.66;;;0.62;100.00
16030;BME280;34770;49.272;11.070;2022-11-20T06:12:37;97172.72;;;0.69;100.00
16030;BME280;34770;49.272;11.070;2022-11-20T06:15:04;97170.19;;;0.73;100.00
16030;BME280;34770;49.272;11.070;2022-11-20T06:17:30;97165.91;;;0.67;100.00
16030;BME280;34770;49.272;11.070;2022-11-20T06:19:55;97161.47;;;0.71;100.00
16030;BME280;34770;49.272;11.070;2022-11-20T06:22:21;97158.28;;;0.77;100.00
16030;BME280;34770;49.272;11.070;2022-11-20T06:24:46;97161.22;;;0.81;100.00
16030;BME280;34770;49.272;11.070;2022-11-20T06:27:12;97155.34;;;0.88;100.00
16030;BME280;34770;49.272;11.070;2022-11-20T06:29:37;97166.81;;;0.90;100.00
16030;BME280;34770;49.272;11.070;2022-11-20T06:32:03;97173.31;;;0.94;100.00
16030;BME280;34770;49.272;11.070;2022-11-20T06:34:28;97170.56;;;0.94;100.00
16030;BME280;34770;49.272;11.070;2022-11-20T06:36:54;97162.03;;;0.95;100.00
16030;BME280;34770;49.272;11.070;2022-11-20T06:39:19;97151.19;;;0.90;100.00
16030;BME280;34770;49.272;11.070;2022-11-20T06:41:45;97159.09;;;0.92;100.00
16030;BME280;34770;49.272;11.070;2022-11-20T06:44:10;97152.03;;;0.77;100.00
16030;BME280;34770;49.272;11.070;2022-11-20T06:46:36;97153.38;;;0.66;100.00
16030;BME280;34770;49.272;11.070;2022-11-20T06:49:02;97126.41;;;0.45;100.00
16030;BME280;34770;49.272;11.070;2022-11-20T06:51:27;97158.53;;;0.67;100.00
16030;BME280;34770;49.272;11.070;2022-11-20T06:53:53;97153.06;;;0.67;100.00
16030;BME280;34770;49.272;11.070;2022-11-20T06:56:19;97167.75;;;0.71;100.00
16030;BME280;34770;49.272;11.070;2022-11-20T06:58:45;97147.56;;;0.67;100.00
16030;BME280;34770;49.272;11.070;2022-11-20T07:01:12;97163.28;;;0.75;100.00
16030;BME280;34770;49.272;11.070;2022-11-20T07:03:39;97163.78;;;0.77;100.00
16030;BME280;34770;49.272;11.070;2022-11-20T07:06:05;97160.25;;;0.77;100.00
16030;BME280;34770;49.272;11.070;2022-11-20T07:08:31;97171.28;;;0.86;100.00
16030;BME280;34770;49.272;11.070;2022-11-20T07:10:58;97166.19;;;0.93;100.00
16030;BME280;34770;49.272;11.070;2022-11-20T07:13:25;97174.28;;;0.98;100.00
16030;BME280;34770;49.272;11.070;2022-11-20T07:15:50;97170.63;;;1.03;100.00
16030;BME280;34770;49.272;11.070;2022-11-20T07:18:16;97169.72;;;1.07;100.00
16030;BME280;34770;49.272;11.070;2022-11-20T07:20:41;97151.38;;;0.94;100.00
16030;BME280;34770;49.272;11.070;2022-11-20T07:23:07;97173.34;;;1.17;100.00
16030;BME280;34770;49.272;11.070;2022-11-20T07:25:32;97175.28;;;1.16;100.00
16030;BME280;34770;49.272;11.070;2022-11-20T07:27:59;97171.84;;;1.10;100.00
16030;BME280;34770;49.272;11.070;2022-11-20T07:30:25;97160.25;;;1.14;100.00
16030;BME280;34770;49.272;11.070;2022-11-20T07:32:51;97166.50;;;1.28;100.00
16030;BME280;34770;49.272;11.070;2022-11-20T07:35:17;97162.47;;;1.25;100.00
16030;BME280;34770;49.272;11.070;2022-11-20T07:37:43;97164.47;;;1.34;100.00
16030;BME280;34770;49.272;11.070;2022-11-20T07:40:09;97169.63;;;1.35;100.00
16030;BME280;34770;49.272;11.070;2022-11-20T07:42:34;97182.75;;;1.38;100.00
16030;BME280;34770;49.272;11.070;2022-11-20T07:45:00;97181.13;;;1.37;100.00
16030;BME280;34770;49.272;11.070;2022-11-20T07:47:25;97175.63;;;1.37;100.00
16030;BME280;34770;49.272;11.070;2022-11-20T07:49:51;97166.47;;;1.42;100.00
16030;BME280;34770;49.272;11.070;2022-11-20T07:52:16;97178.63;;;1.50;100.00
16030;BME280;34770;49.272;11.070;2022-11-20T07:54:42;97181.03;;;1.51;100.00
16030;BME280;34770;49.272;11.070;2022-11-20T07:57:07;97189.22;;;1.42;100.00
16030;BME280;34770;49.272;11.070;2022-11-20T07:59:33;97195.16;;;1.22;100.00
16030;BME280;34770;49.272;11.070;2022-11-20T08:01:58;97189.47;;;1.32;100.00
16030;BME280;34770;49.272;11.070;2022-11-20T08:04:24;97193.81;;;1.33;100.00
16030;BME280;34770;49.272;11.070;2022-11-20T08:06:51;97170.50;;;1.22;100.00
16030;BME280;34770;49.272;11.070;2022-11-20T08:09:17;97194.50;;;1.39;100.00
16030;BME280;34770;49.272;11.070;2022-11-20T08:11:42;97193.91;;;1.42;100.00
16030;BME280;34770;49.272;11.070;2022-11-20T08:14:26;97173.66;;;1.52;100.00
16030;BME280;34770;49.272;11.070;2022-11-20T08:16:52;97190.34;;;1.64;100.00
16030;BME280;34770;49.272;11.070;2022-11-20T08:19:18;97177.13;;;1.66;100.00
16030;BME280;34770;49.272;11.070;2022-11-20T08:21:44;97180.38;;;1.68;100.00
16030;BME280;34770;49.272;11.070;2022-11-20T08:24:10;97190.97;;;1.61;100.00
16030;BME280;34770;49.272;11.070;2022-11-20T08:26:37;97188.41;;;1.65;100.00
16030;BME280;34770;49.272;11.070;2022-11-20T08:29:03;97196.81;;;1.68;100.00
16030;BME280;34770;49.272;11.070;2022-11-20T08:31:29;97197.94;;;1.67;100.00
16030;BME280;34770;49.272;11.070;2022-11-20T08:33:55;97196.03;;;1.68;100.00
16030;BME280;34770;49.272;11.070;2022-11-20T08:36:21;97181.00;;;1.65;100.00
16030;BME280;34770;49.272;11.070;2022-11-20T08:38:48;97173.06;;;1.64;100.00
16030;BME280;34770;49.272;11.070;2022-11-20T08:41:14;97179.81;;;1.80;100.00
16030;BME280;34770;49.272;11.070;2022-11-20T08:43:49;97170.13;;;1.83;100.00
16030;BME280;34770;49.272;11.070;2022-11-20T08:46:15;97190.59;;;1.99;100.00
16030;BME280;34770;49.272;11.070;2022-11-20T08:48:40;97179.97;;;2.06;100.00
16030;BME280;34770;49.272;11.070;2022-11-20T08:51:06;97197.94;;;2.13;100.00
16030;BME280;34770;49.272;11.070;2022-11-20T08:53:31;97184.38;;;2.16;100.00
16030;BME280;34770;49.272;11.070;2022-11-20T08:55:57;97194.47;;;2.30;100.00
16030;BME280;34770;49.272;11.070;2022-11-20T08:58:23;97170.38;;;2.27;100.00
16030;BME280;34770;49.272;11.070;2022-11-20T09:00:49;97191.47;;;2.49;100.00
16030;BME280;34770;49.272;11.070;2022-11-20T09:03:14;97162.13;;;2.27;100.00
16030;BME280;34770;49.272;11.070;2022-11-20T09:05:39;97189.72;;;2.53;100.00
16030;BME280;34770;49.272;11.070;2022-11-20T09:08:05;97178.22;;;2.51;100.00
16030;BME280;34770;49.272;11.070;2022-11-20T09:10:30;97172.44;;;2.61;100.00
16030;BME280;34770;49.272;11.070;2022-11-20T09:12:57;97159.84;;;2.60;100.00
16030;BME280;34770;49.272;11.070;2022-11-20T09:15:24;97172.16;;;2.71;100.00
16030;BME280;34770;49.272;11.070;2022-11-20T09:18:00;97174.94;;;2.80;100.00
16030;BME280;34770;49.272;11.070;2022-11-20T09:20:27;97176.75;;;2.94;100.00
16030;BME280;34770;49.272;11.070;2022-11-20T09:22:54;97171.25;;;3.02;100.00
16030;BME280;34770;49.272;11.070;2022-11-20T09:25:20;97172.72;;;3.09;100.00
16030;BME280;34770;49.272;11.070;2022-11-20T09:27:45;97158.66;;;3.10;100.00
16030;BME280;34770;49.272;11.070;2022-11-20T09:30:15;97142.47;;;3.09;100.00
16030;BME280;34770;49.272;11.070;2022-11-20T09:32:42;97140.38;;;3.23;100.00
16030;BME280;34770;49.272;11.070;2022-11-20T09:35:08;97160.63;;;3.45;100.00
16030;BME280;34770;49.272;11.070;2022-11-20T09:37:33;97172.91;;;3.56;100.00
16030;BME280;34770;49.272;11.070;2022-11-20T09:39:58;97125.19;;;3.52;100.00
16030;BME280;34770;49.272;11.070;2022-11-20T09:43:01;97158.59;;;4.07;100.00
16030;BME280;34770;49.272;11.070;2022-11-20T09:51:05;97146.69;;;4.32;100.00
16030;BME280;34770;49.272;11.070;2022-11-20T09:56:14;97158.81;;;4.31;100.00
16030;BME280;34770;49.272;11.070;2022-11-20T09:58:45;97137.97;;;4.22;100.00
16030;BME280;34770;49.272;11.070;2022-11-20T10:01:16;97156.72;;;4.37;100.00
16030;BME280;34770;49.272;11.070;2022-11-20T10:06:31;97151.97;;;4.46;100.00
16030;BME280;34770;49.272;11.070;2022-11-20T10:14:43;97144.66;;;4.51;100.00
16030;BME280;34770;49.272;11.070;2022-11-20T10:22:35;97145.16;;;4.53;100.00
16030;BME280;34770;49.272;11.070;2022-11-20T10:26:03;97143.53;;;4.52;100.00
16030;BME280;34770;49.272;11.070;2022-11-20T10:31:45;97149.56;;;4.45;100.00
16030;BME280;34770;49.272;11.070;2022-11-20T10:34:30;97150.03;;;4.47;100.00
16030;BME280;34770;49.272;11.070;2022-11-20T10:37:05;97107.34;;;4.23;100.00
16030;BME280;34770;49.272;11.070;2022-11-20T10:42:31;97139.28;;;4.54;100.00
16030;BME280;34770;49.272;11.070;2022-11-20T10:45:13;97129.88;;;4.55;100.00
16030;BME280;34770;49.272;11.070;2022-11-20T10:47:43;97130.53;;;4.52;100.00
16030;BME280;34770;49.272;11.070;2022-11-20T10:50:11;97112.78;;;4.41;100.00
16030;BME280;34770;49.272;11.070;2022-11-20T10:55:40;97138.88;;;4.73;100.00
16030;BME280;34770;49.272;11.070;2022-11-20T10:58:18;97139.38;;;4.75;100.00
16030;BME280;34770;49.272;11.070;2022-11-20T11:00:49;97126.22;;;4.72;100.00
16030;BME280;34770;49.272;11.070;2022-11-20T11:03:26;97128.19;;;4.72;100.00
16030;BME280;34770;49.272;11.070;2022-11-20T11:06:03;97131.53;;;4.77;100.00
16030;BME280;34770;49.272;11.070;2022-11-20T11:08:38;97115.13;;;4.60;100.00
16030;BME280;34770;49.272;11.070;2022-11-20T11:11:18;97115.75;;;4.66;100.00
16030;BME280;34770;49.272;11.070;2022-11-20T11:13:45;97113.94;;;4.70;100.00
16030;BME280;34770;49.272;11.070;2022-11-20T11:16:25;97118.94;;;4.68;100.00
16030;BME280;34770;49.272;11.070;2022-11-20T11:18:51;97115.22;;;4.72;100.00
16030;BME280;34770;49.272;11.070;2022-11-20T11:21:23;97108.91;;;4.72;100.00
16030;BME280;34770;49.272;11.070;2022-11-20T11:23:58;97128.41;;;4.88;100.00
16030;BME280;34770;49.272;11.070;2022-11-20T11:26:24;97116.38;;;4.92;100.00
16030;BME280;34770;49.272;11.070;2022-11-20T11:28:59;97126.16;;;4.90;100.00
16030;BME280;34770;49.272;11.070;2022-11-20T11:31:27;97118.00;;;4.93;100.00
16030;BME280;34770;49.272;11.070;2022-11-20T11:34:21;97101.91;;;4.95;100.00
16030;BME280;34770;49.272;11.070;2022-11-20T11:36:54;97108.97;;;4.84;100.00
16030;BME280;34770;49.272;11.070;2022-11-20T11:39:21;97104.03;;;4.99;100.00
16030;BME280;34770;49.272;11.070;2022-11-20T11:41:48;97100.50;;;4.89;100.00
16030;BME280;34770;49.272;11.070;2022-11-20T11:44:19;97105.78;;;5.03;100.00
16030;BME280;34770;49.272;11.070;2022-11-20T11:47:09;97110.25;;;5.08;100.00
16030;BME280;34770;49.272;11.070;2022-11-20T11:49:36;97093.25;;;5.06;100.00
16030;BME280;34770;49.272;11.070;2022-11-20T11:52:08;97109.66;;;5.23;100.00
16030;BME280;34770;49.272;11.070;2022-11-20T11:54:41;97103.47;;;5.26;100.00
16030;BME280;34770;49.272;11.070;2022-11-20T11:57:17;97101.44;;;5.36;100.00
16030;BME280;34770;49.272;11.070;2022-11-20T12:00:12;97107.44;;;5.38;100.00
16030;BME280;34770;49.272;11.070;2022-11-20T12:03:03;97097.53;;;5.37;100.00
16030;BME280;34770;49.272;11.070;2022-11-20T12:05:59;97092.72;;;5.34;100.00
16030;BME280;34770;49.272;11.070;2022-11-20T12:08:36;97100.66;;;5.35;100.00
16030;BME280;34770;49.272;11.070;2022-11-20T12:13:50;97083.69;;;5.24;100.00
16030;BME280;34770;49.272;11.070;2022-11-20T12:16:19;97112.69;;;5.31;100.00
16030;BME280;34770;49.272;11.070;2022-11-20T12:18:49;97128.94;;;4.81;100.00
16030;BME280;34770;49.272;11.070;2022-11-20T12:21:36;97124.88;;;4.57;100.00
16030;BME280;34770;49.272;11.070;2022-11-20T12:24:32;97126.06;;;4.39;100.00
16030;BME280;34770;49.272;11.070;2022-11-20T12:30:19;97119.75;;;3.99;100.00
16030;BME280;34770;49.272;11.070;2022-11-20T12:44:12;97117.50;;;3.84;100.00
16030;BME280;34770;49.272;11.070;2022-11-20T12:47:34;97096.03;;;3.69;100.00
16030;BME280;34770;49.272;11.070;2022-11-20T12:58:37;97110.66;;;4.08;100.00
16030;BME280;34770;49.272;11.070;2022-11-20T13:04:39;97088.94;;;4.06;100.00
16030;BME280;34770;49.272;11.070;2022-11-20T13:07:13;97089.41;;;4.08;100.00
16030;BME280;34770;49.272;11.070;2022-11-20T13:09:45;97074.06;;;3.98;100.00
16030;BME280;34770;49.272;11.070;2022-11-20T13:12:17;97098.31;;;4.14;100.00
16030;BME280;34770;49.272;11.070;2022-11-20T13:17:50;97093.00;;;4.09;100.00
16030;BME280;34770;49.272;11.070;2022-11-20T13:20:18;97084.56;;;4.05;100.00
16030;BME280;34770;49.272;11.070;2022-11-20T13:22:46;97079.38;;;4.04;100.00
16030;BME280;34770;49.272;11.070;2022-11-20T13:25:32;97067.09;;;4.01;100.00
16030;BME280;34770;49.272;11.070;2022-11-20T13:30:51;97074.34;;;4.06;100.00
16030;BME280;34770;49.272;11.070;2022-11-20T13:33:35;97080.50;;;4.11;100.00
16030;BME280;34770;49.272;11.070;2022-11-20T13:38:39;97084.16;;;4.24;100.00
16030;BME280;34770;49.272;11.070;2022-11-20T13:41:07;97075.63;;;4.17;100.00
16030;BME280;34770;49.272;11.070;2022-11-20T13:43:52;97090.69;;;4.20;100.00
16030;BME280;34770;49.272;11.070;2022-11-20T13:46:17;97091.47;;;4.20;100.00
16030;BME280;34770;49.272;11.070;2022-11-20T13:48:49;97086.31;;;4.19;100.00
16030;BME280;34770;49.272;11.070;2022-11-20T13:51:44;97085.47;;;4.18;100.00
16030;BME280;34770;49.272;11.070;2022-11-20T14:02:20;97075.50;;;4.05;100.00
16030;BME280;34770;49.272;11.070;2022-11-20T14:04:50;97089.09;;;4.10;100.00
16030;BME280;34770;49.272;11.070;2022-11-20T14:15:03;97005.47;;;3.19;100.00
16030;BME280;34770;49.272;11.070;2022-11-20T14:38:31;96983.66;;;2.97;100.00
16030;BME280;34770;49.272;11.070;2022-11-20T14:43:46;97023.75;;;3.24;100.00
16030;BME280;34770;49.272;11.070;2022-11-20T14:46:26;97016.31;;;3.33;100.00
